Time;durP1;ratioP1;P1;durP2;ratioP2;P2;SDS_P1;SDS_P2;PMS_P1;PMS_P2;Temp;Humidity;BMP_temperature;BMP_pressure;BME280_temperature;BME280_humidity;BME280_pressure;Samples;Min_cycle;Max_cycle;Signal;HPM_P1;HPM_P2
2021/12/17 00:01:13;;;;;;;4.07;1.23;;;20.60;61.90;;;;;;4496353;31;20138;-82
2021/12/17 00:03:47;;;;;;;2.17;1.00;;;20.60;61.90;;;;;;4495513;31;20120;-84
2021/12/17 00:08:54;;;;;;;4.80;1.27;;;20.60;62.00;;;;;;4495457;31;21381;-84
2021/12/17 00:11:22;;;;;;;4.32;0.90;;;20.60;62.10;;;;;;4494774;31;20154;-80
2021/12/17 00:13:49;;;;;;;4.43;1.17;;;20.60;62.10;;;;;;4495482;31;20133;-76
2021/12/17 00:16:20;;;;;;;2.80;0.93;;;20.60;62.10;;;;;;4493910;31;20484;-81
2021/12/17 00:48:47;;;;;;;1.92;0.77;;;20.50;62.60;;;;;;4496297;31;20125;-85
2021/12/17 00:53:49;;;;;;;1.90;0.60;;;20.40;62.50;;;;;;4495631;31;20120;-85
2021/12/17 00:56:15;;;;;;;1.50;0.52;;;20.40;62.50;;;;;;4495551;31;20625;-86
2021/12/17 00:58:41;;;;;;;1.63;0.70;;;20.40;62.50;;;;;;4494684;31;20124;-85
2021/12/17 01:01:07;;;;;;;2.03;0.70;;;20.40;62.50;;;;;;4495641;31;20155;-84
2021/12/17 01:03:33;;;;;;;2.40;0.85;;;20.40;62.60;;;;;;4493533;31;20125;-84
2021/12/17 01:05:59;;;;;;;1.50;0.77;;;20.40;62.60;;;;;;4494692;31;20135;-85
2021/12/17 01:08:25;;;;;;;2.45;0.93;;;20.40;62.60;;;;;;4494459;31;20216;-85
2021/12/17 01:10:54;;;;;;;2.03;1.00;;;20.30;62.50;;;;;;4494250;31;20129;-85
2021/12/17 01:13:23;;;;;;;2.58;0.90;;;20.30;62.50;;;;;;4494325;31;20168;-84
2021/12/17 01:15:50;;;;;;;1.63;0.65;;;20.30;62.60;;;;;;4494481;31;20139;-85
2021/12/17 01:18:20;;;;;;;2.47;0.75;;;20.30;62.60;;;;;;4495474;31;20176;-85
2021/12/17 01:36:39;;;;;;;3.00;0.70;;;20.30;62.60;;;;;;4494965;31;20124;-85
2021/12/17 01:42:07;;;;;;;1.77;0.52;;;20.20;62.60;;;;;;4493213;31;20132;-85
2021/12/17 01:44:41;;;;;;;2.58;0.68;;;20.20;63.50;;;;;;4495443;31;20263;-84
2021/12/17 01:47:10;;;;;;;1.63;0.50;;;20.20;62.70;;;;;;4494573;31;20124;-86
2021/12/17 02:00:34;;;;;;;1.38;0.50;;;20.10;62.60;;;;;;4494215;31;20145;-84
2021/12/17 02:03:12;;;;;;;1.30;0.50;;;20.20;62.80;;;;;;4481097;32;20205;-85
2021/12/17 02:05:39;;;;;;;2.72;0.60;;;20.10;62.60;;;;;;4495184;32;20151;-85
2021/12/17 02:08:05;;;;;;;2.05;0.50;;;20.10;62.60;;;;;;4493010;32;20109;-84
2021/12/17 02:30:16;;;;;;;1.80;0.68;;;20.00;62.80;;;;;;4495876;31;20155;-84
2021/12/17 02:32:07;;;;;;;1.70;0.50;;;20.00;62.70;;;;;;4489084;31;20593;-84
2021/12/17 02:37:22;;;;;;;1.42;0.50;;;20.00;62.80;;;;;;4496862;31;20140;-84
2021/12/17 02:48:10;;;;;;;1.42;0.40;;;20.00;62.80;;;;;;4497638;31;20681;-85
2021/12/17 02:50:42;;;;;;;1.45;0.43;;;20.00;62.80;;;;;;4495500;31;20116;-85
2021/12/17 02:53:10;;;;;;;2.17;0.50;;;20.00;62.90;;;;;;4498089;31;20799;-84
2021/12/17 02:55:39;;;;;;;0.77;0.35;;;20.00;62.90;;;;;;4496545;31;20407;-82
2021/12/17 02:58:06;;;;;;;1.05;0.52;;;19.90;62.80;;;;;;4497154;31;20133;-84
2021/12/17 03:00:33;;;;;;;2.13;0.50;;;19.90;62.80;;;;;;4497024;31;20129;-84
2021/12/17 03:03:02;;;;;;;1.67;0.47;;;19.90;62.90;;;;;;4496535;31;20137;-84
2021/12/17 03:05:28;;;;;;;2.47;0.50;;;19.90;62.80;;;;;;4497632;31;20636;-84
2021/12/17 03:07:57;;;;;;;1.05;0.40;;;19.90;62.80;;;;;;4495840;31;20136;-84
2021/12/17 03:10:25;;;;;;;1.00;0.52;;;19.90;62.80;;;;;;4498318;31;20109;-84
2021/12/17 03:13:03;;;;;;;0.52;0.30;;;19.90;62.80;;;;;;4496789;31;20128;-85
2021/12/17 03:23:42;;;;;;;0.68;0.30;;;19.90;62.90;;;;;;4497009;31;20133;-84
2021/12/17 03:26:20;;;;;;;0.77;0.32;;;19.80;62.90;;;;;;4496994;31;20147;-85
2021/12/17 03:28:49;;;;;;;1.17;0.40;;;19.80;62.80;;;;;;4495907;31;20147;-85
2021/12/17 03:31:17;;;;;;;1.08;0.30;;;19.80;62.90;;;;;;4496387;31;20554;-85
2021/12/17 03:33:45;;;;;;;1.05;0.45;;;19.80;62.90;;;;;;4496879;31;20139;-85
2021/12/17 03:36:14;;;;;;;0.93;0.50;;;19.80;62.90;;;;;;4497260;31;20280;-85
2021/12/17 03:38:42;;;;;;;0.88;0.40;;;19.80;62.90;;;;;;4496461;31;20600;-85
2021/12/17 03:41:24;;;;;;;0.98;0.40;;;19.80;62.90;;;;;;4496039;31;20138;-84
2021/12/17 03:43:53;;;;;;;0.50;0.30;;;19.80;62.90;;;;;;4496881;31;20116;-84
2021/12/17 03:46:21;;;;;;;0.77;0.30;;;19.70;62.80;;;;;;4495655;31;20120;-84
2021/12/17 03:48:48;;;;;;;0.73;0.50;;;19.80;62.90;;;;;;4496889;31;20407;-84
2021/12/17 03:51:16;;;;;;;2.08;0.40;;;19.80;62.90;;;;;;4496021;31;20108;-85
2021/12/17 03:53:49;;;;;;;0.60;0.28;;;19.80;62.90;;;;;;4496347;31;20124;-84
2021/12/17 03:56:15;;;;;;;0.50;0.25;;;19.70;62.90;;;;;;4497485;31;20125;-85
2021/12/17 03:58:41;;;;;;;1.00;0.40;;;19.70;62.90;;;;;;4496557;31;20125;-83
2021/12/17 04:01:07;;;;;;;0.93;0.28;;;19.70;62.90;;;;;;4498087;31;20226;-85
2021/12/17 04:03:34;;;;;;;0.52;0.30;;;19.70;62.90;;;;;;4496553;31;20120;-85
2021/12/17 04:06:00;;;;;;;0.65;0.40;;;19.70;62.90;;;;;;4497675;31;20140;-85
2021/12/17 04:08:28;;;;;;;1.48;0.40;;;19.70;62.90;;;;;;4496458;31;20129;-84
2021/12/17 04:11:02;;;;;;;1.20;0.50;;;19.70;62.90;;;;;;4497064;31;20659;-86
2021/12/17 04:13:33;;;;;;;0.75;0.30;;;19.70;62.90;;;;;;4497275;31;20152;-85
2021/12/17 04:16:07;;;;;;;1.60;0.50;;;19.70;62.90;;;;;;4495323;31;20197;-85
2021/12/17 04:18:36;;;;;;;1.25;0.40;;;19.70;62.90;;;;;;4496533;31;20148;-84
2021/12/17 04:21:05;;;;;;;0.60;0.45;;;19.70;62.90;;;;;;4494467;31;20138;-84
2021/12/17 04:23:34;;;;;;;0.35;0.20;;;19.60;62.90;;;;;;4496192;31;20275;-85
2021/12/17 04:26:00;;;;;;;0.82;0.30;;;19.70;63.00;;;;;;4495601;31;20220;-85
2021/12/17 04:28:29;;;;;;;1.20;0.28;;;19.60;62.80;;;;;;4495488;31;20213;-85
2021/12/17 04:30:55;;;;;;;0.60;0.28;;;19.60;62.80;;;;;;4496165;31;20148;-84
2021/12/17 04:33:21;;;;;;;1.10;0.30;;;19.60;62.80;;;;;;4495272;31;20254;-84
2021/12/17 04:35:47;;;;;;;0.40;0.20;;;19.60;62.80;;;;;;4495019;31;20155;-85
2021/12/17 04:38:15;;;;;;;0.57;0.47;;;19.60;62.80;;;;;;4495226;31;20136;-83
2021/12/17 04:40:43;;;;;;;0.68;0.30;;;19.60;62.80;;;;;;4495408;31;20141;-84
2021/12/17 04:43:22;;;;;;;0.93;0.45;;;19.60;62.80;;;;;;4494702;31;20125;-85
2021/12/17 04:46:05;;;;;;;0.90;0.45;;;19.60;62.80;;;;;;4494980;31;20124;-85
2021/12/17 04:59:48;;;;;;;0.65;0.20;;;19.60;62.80;;;;;;4480754;31;20615;-83
2021/12/17 05:02:16;;;;;;;0.40;0.30;;;19.60;62.80;;;;;;4494226;31;20128;-85
2021/12/17 05:04:43;;;;;;;0.93;0.38;;;19.50;62.80;;;;;;4495233;31;20120;-84
2021/12/17 05:07:12;;;;;;;1.02;0.30;;;19.60;62.80;;;;;;4494655;31;20139;-84
2021/12/17 05:09:57;;;;;;;0.77;0.30;;;19.60;62.80;;;;;;4494749;31;20125;-84
2021/12/17 05:20:50;;;;;;;1.13;0.30;;;19.50;62.80;;;;;;4494426;31;20121;-85
2021/12/17 05:23:22;;;;;;;0.47;0.15;;;19.50;62.80;;;;;;4494543;31;20179;-85
2021/12/17 05:25:49;;;;;;;2.15;0.40;;;19.50;62.80;;;;;;4494663;31;20282;-85
2021/12/17 05:28:15;;;;;;;0.68;0.30;;;19.50;62.70;;;;;;4494755;31;20246;-85
2021/12/17 05:30:47;;;;;;;1.00;0.20;;;19.50;62.80;;;;;;4494085;31;20277;-84
2021/12/17 05:33:17;;;;;;;1.25;0.38;;;19.50;62.80;;;;;;4493302;31;20141;-85
2021/12/17 05:35:44;;;;;;;0.63;0.30;;;19.50;62.80;;;;;;4495333;31;20484;-85
2021/12/17 05:38:12;;;;;;;0.20;0.10;;;19.40;62.80;;;;;;4494359;31;20264;-84
2021/12/17 05:40:39;;;;;;;0.65;0.30;;;19.50;62.80;;;;;;4495012;31;20171;-84
2021/12/17 05:43:06;;;;;;;0.57;0.32;;;19.50;62.80;;;;;;4493623;31;20133;-84
2021/12/17 05:45:35;;;;;;;0.93;0.30;;;19.50;63.70;;;;;;4494429;31;20132;-84
2021/12/17 05:48:04;;;;;;;0.68;0.40;;;19.50;62.90;;;;;;4494909;31;20139;-85
2021/12/17 05:50:31;;;;;;;0.50;0.40;;;19.40;62.80;;;;;;4493034;31;20132;-85
2021/12/17 05:52:57;;;;;;;1.25;0.38;;;19.40;62.80;;;;;;4481035;31;20144;-85
2021/12/17 05:55:23;;;;;;;0.57;0.30;;;19.40;62.80;;;;;;4494089;31;20112;-84
2021/12/17 05:57:49;;;;;;;0.47;0.20;;;19.40;62.80;;;;;;4493722;31;20254;-85
2021/12/17 06:00:16;;;;;;;0.45;0.30;;;19.40;62.80;;;;;;4494503;31;20117;-85
2021/12/17 06:02:42;;;;;;;0.90;0.20;;;19.40;62.80;;;;;;4493664;31;20136;-85
2021/12/17 06:05:08;;;;;;;0.30;0.20;;;19.40;62.80;;;;;;4493939;31;20202;-84
2021/12/17 06:07:34;;;;;;;0.68;0.25;;;19.40;62.80;;;;;;4493949;32;20304;-85
2021/12/17 06:10:03;;;;;;;0.82;0.20;;;19.40;62.90;;;;;;4495031;32;20124;-84
2021/12/17 06:12:29;;;;;;;0.52;0.30;;;19.40;62.80;;;;;;4493913;32;20168;-84
2021/12/17 06:14:55;;;;;;;0.20;0.10;;;19.40;62.90;;;;;;4494498;32;20259;-84
2021/12/17 06:17:22;;;;;;;0.60;0.30;;;19.40;62.80;;;;;;4493492;32;20641;-84
2021/12/17 06:19:48;;;;;;;0.90;0.30;;;19.30;62.80;;;;;;4494163;32;20167;-84
2021/12/17 06:22:15;;;;;;;0.65;0.30;;;19.30;62.80;;;;;;4495086;32;20148;-85
2021/12/17 06:24:44;;;;;;;0.25;0.20;;;19.30;62.80;;;;;;4492793;32;20474;-85
2021/12/17 06:27:12;;;;;;;0.50;0.30;;;19.30;62.80;;;;;;4494929;32;20271;-84
2021/12/17 06:29:38;;;;;;;0.45;0.20;;;19.30;62.80;;;;;;4494130;32;20182;-85
2021/12/17 06:32:05;;;;;;;0.50;0.25;;;19.30;62.90;;;;;;4494398;32;20135;-84
2021/12/17 06:34:31;;;;;;;0.30;0.30;;;19.30;62.80;;;;;;4493303;32;20203;-84
2021/12/17 06:36:56;;;;;;;0.50;0.20;;;19.30;62.80;;;;;;4493650;32;20234;-85
2021/12/17 06:39:24;;;;;;;0.60;0.30;;;19.30;62.90;;;;;;4493693;32;20128;-84
2021/12/17 06:41:50;;;;;;;0.40;0.20;;;19.30;62.90;;;;;;4493597;32;20490;-84
2021/12/17 06:44:21;;;;;;;0.98;0.30;;;19.30;63.70;;;;;;4494994;32;20140;-84
2021/12/17 06:47:03;;;;;;;0.35;0.10;;;19.30;62.90;;;;;;4493729;32;20262;-85
2021/12/17 07:06:02;;;;;;;0.52;0.30;;;19.20;62.80;;;;;;4494419;32;20141;-83
2021/12/17 07:24:50;;;;;;;0.30;0.10;;;19.20;62.90;;;;;;4495391;31;20533;-84
2021/12/17 07:33:06;;;;;;;0.75;0.30;;;19.20;62.90;;;;;;4495533;31;20206;-84
2021/12/17 07:35:52;;;;;;;0.57;0.20;;;19.20;62.90;;;;;;4496356;31;20262;-84
2021/12/17 07:41:04;;;;;;;0.45;0.20;;;19.20;63.00;;;;;;4496081;31;20770;-84
2021/12/17 07:43:37;;;;;;;1.00;0.45;;;19.10;62.90;;;;;;4496970;31;20198;-85
2021/12/17 07:46:06;;;;;;;1.25;0.32;;;19.10;63.00;;;;;;4494581;31;20145;-84
2021/12/17 07:48:32;;;;;;;0.82;0.30;;;19.10;62.90;;;;;;4496824;31;20121;-85
2021/12/17 07:51:02;;;;;;;0.57;0.22;;;19.10;62.90;;;;;;4495718;31;20137;-84
2021/12/17 07:53:29;;;;;;;0.35;0.25;;;19.10;62.90;;;;;;4496733;31;20108;-84
2021/12/17 07:55:56;;;;;;;0.40;0.20;;;19.10;62.90;;;;;;4496541;31;20566;-84
2021/12/17 07:58:21;;;;;;;1.25;0.40;;;19.10;63.00;;;;;;4495599;31;20136;-84
2021/12/17 08:00:47;;;;;;;0.38;0.20;;;19.10;63.00;;;;;;4496858;31;20554;-86
2021/12/17 08:03:14;;;;;;;0.40;0.38;;;19.10;62.90;;;;;;4494230;31;20605;-85
2021/12/17 08:05:42;;;;;;;0.50;0.35;;;19.10;63.00;;;;;;4497765;31;20140;-85
2021/12/17 08:08:09;;;;;;;0.90;0.40;;;19.10;63.00;;;;;;4496478;31;20691;-85
2021/12/17 08:10:35;;;;;;;0.47;0.38;;;19.10;63.00;;;;;;4496189;31;20141;-85
2021/12/17 08:13:01;;;;;;;0.32;0.20;;;19.10;63.00;;;;;;4496093;31;20174;-84
2021/12/17 08:15:36;;;;;;;0.98;0.35;;;19.00;62.90;;;;;;4495587;31;20128;-85
2021/12/17 08:32:07;;;;;;;3.70;2.20;;;19.00;62.10;;;;;;4496819;31;20136;-79
2021/12/17 08:34:34;;;;;;;3.58;2.20;;;19.00;61.60;;;;;;4496994;31;20151;-76
2021/12/17 08:37:00;;;;;;;4.60;1.80;;;18.90;61.70;;;;;;4495823;31;20125;-76
2021/12/17 08:39:29;;;;;;;2.50;1.67;;;18.90;62.00;;;;;;4496116;31;20129;-78
2021/12/17 08:41:55;;;;;;;3.58;1.90;;;18.90;62.20;;;;;;4494913;31;20136;-78
2021/12/17 08:44:22;;;;;;;4.13;2.03;;;18.90;62.30;;;;;;4495828;31;20124;-78
2021/12/17 08:46:48;;;;;;;3.40;1.60;;;18.90;62.30;;;;;;4494932;31;20145;-78
2021/12/17 08:49:14;;;;;;;4.32;1.70;;;18.90;62.40;;;;;;4495241;31;20323;-80
2021/12/17 08:51:43;;;;;;;2.53;1.40;;;18.90;62.40;;;;;;4495882;31;20226;-77
2021/12/17 08:54:09;;;;;;;2.85;1.80;;;18.90;62.30;;;;;;4495724;31;20209;-78
2021/12/17 08:56:47;;;;;;;4.28;1.35;;;18.90;62.30;;;;;;4497241;31;20141;-81
2021/12/17 08:59:16;;;;;;;2.35;1.05;;;19.00;62.30;;;;;;4494531;31;20124;-76
2021/12/17 09:01:41;;;;;;;2.97;1.48;;;19.00;62.30;;;;;;4496830;31;20581;-77
2021/12/17 09:04:07;;;;;;;2.63;1.38;;;19.00;62.20;;;;;;4496326;31;20132;-74
2021/12/17 09:06:33;;;;;;;2.45;1.13;;;19.10;62.20;;;;;;4483485;31;20257;-76
2021/12/17 09:08:59;;;;;;;4.93;1.10;;;19.20;61.90;;;;;;4495056;31;20310;-76
2021/12/17 09:11:28;;;;;;;1.40;0.98;;;19.30;61.70;;;;;;4493978;31;20638;-76
2021/12/17 09:13:57;;;;;;;2.00;0.90;;;19.40;61.50;;;;;;4495503;31;20276;-77
2021/12/17 09:16:23;;;;;;;1.90;1.00;;;19.50;61.30;;;;;;4493848;31;20152;-77
2021/12/17 09:18:50;;;;;;;3.95;1.58;;;19.60;61.10;;;;;;4495410;31;20132;-75
2021/12/17 09:21:17;;;;;;;1.85;0.68;;;19.70;60.90;;;;;;4494607;31;20586;-75
2021/12/17 09:23:44;;;;;;;2.45;0.70;;;19.80;60.70;;;;;;4494763;31;20237;-78
2021/12/17 09:26:11;;;;;;;1.95;0.80;;;20.00;60.50;;;;;;4495177;31;20130;-73
2021/12/17 09:28:38;;;;;;;1.63;0.60;;;20.10;60.20;;;;;;4493237;31;20189;-79
2021/12/17 09:31:05;;;;;;;1.80;0.80;;;20.20;60.00;;;;;;4495690;31;20132;-79
2021/12/17 09:33:33;;;;;;;2.13;0.80;;;20.30;59.70;;;;;;4494181;31;20171;-79
2021/12/17 09:35:58;;;;;;;1.30;0.60;;;20.40;59.30;;;;;;4495303;31;20113;-78
2021/12/17 09:38:24;;;;;;;2.85;0.57;;;20.50;59.00;;;;;;4493622;31;20143;-79
2021/12/17 09:40:50;;;;;;;1.10;0.47;;;20.70;58.70;;;;;;4494618;31;20128;-77
2021/12/17 09:43:16;;;;;;;2.17;0.45;;;20.80;58.40;;;;;;4494056;31;20125;-79
2021/12/17 09:45:42;;;;;;;1.02;0.57;;;20.90;58.10;;;;;;4494186;31;20194;-77
2021/12/17 09:48:08;;;;;;;1.52;0.45;;;21.00;57.80;;;;;;4495416;31;20182;-78
2021/12/17 09:50:36;;;;;;;1.05;0.50;;;21.10;57.60;;;;;;4492506;31;20136;-78
2021/12/17 09:53:02;;;;;;;1.58;0.50;;;21.20;57.50;;;;;;4494112;31;20124;-78
2021/12/17 09:55:29;;;;;;;1.20;0.30;;;21.30;57.40;;;;;;4493020;31;20143;-80
2021/12/17 09:57:55;;;;;;;0.77;0.35;;;21.30;57.30;;;;;;4494625;31;20128;-82
2021/12/17 10:00:23;;;;;;;1.75;0.30;;;21.30;57.40;;;;;;4480333;31;20607;-74
2021/12/17 10:02:50;;;;;;;2.75;0.50;;;21.30;57.50;;;;;;4492727;31;20125;-77
2021/12/17 10:05:26;;;;;;;1.23;0.40;;;21.20;57.70;;;;;;4495241;31;20128;-79
2021/12/17 10:08:01;;;;;;;1.70;0.35;;;21.20;58.00;;;;;;4493958;31;20210;-72
2021/12/17 10:10:42;;;;;;;3.63;0.40;;;21.10;58.30;;;;;;4494573;32;20152;-74
2021/12/17 10:13:09;;;;;;;2.55;0.40;;;21.10;58.60;;;;;;4494707;32;20190;-74
2021/12/17 10:15:38;;;;;;;1.20;0.60;;;21.00;58.80;;;;;;4493698;32;20700;-73
2021/12/17 10:18:04;;;;;;;1.25;0.50;;;21.00;59.00;;;;;;4494112;32;20132;-76
2021/12/17 10:20:39;;;;;;;1.23;0.40;;;21.00;58.80;;;;;;4493512;32;20151;-70
2021/12/17 10:23:08;;;;;;;1.52;0.60;;;20.80;58.50;;;;;;4493644;32;20143;-70
2021/12/17 10:25:37;;;;;;;1.40;0.70;;;20.80;58.30;;;;;;4494035;31;20125;-69
2021/12/17 10:28:06;;;;;;;2.03;0.63;;;20.70;57.90;;;;;;4494025;32;20242;-68
2021/12/17 10:30:36;;;;;;;1.05;0.50;;;20.60;57.80;;;;;;4493552;32;20136;-77
2021/12/17 10:33:06;;;;;;;1.58;0.50;;;20.60;57.70;;;;;;4493766;32;20148;-79
2021/12/17 10:35:35;;;;;;;0.93;0.40;;;20.50;57.60;;;;;;4494812;32;20117;-77
2021/12/17 10:38:06;;;;;;;3.08;0.50;;;20.60;57.80;;;;;;4479769;32;20187;-77
2021/12/17 10:40:44;;;;;;;1.70;0.50;;;20.60;58.00;;;;;;4494093;32;20199;-76
2021/12/17 10:43:24;;;;;;;0.70;0.30;;;20.60;58.10;;;;;;4493258;32;20124;-71
2021/12/17 10:48:57;;;;;;;1.30;0.30;;;20.60;58.30;;;;;;4494804;31;20189;-76
2021/12/17 10:51:45;;;;;;;0.70;0.30;;;20.60;58.40;;;;;;4497044;31;20221;-80
2021/12/17 10:54:16;;;;;;;2.45;0.45;;;20.60;58.50;;;;;;4495690;31;20293;-77
2021/12/17 10:56:46;;;;;;;2.05;0.30;;;20.70;58.60;;;;;;4497606;31;20113;-77
2021/12/17 10:59:21;;;;;;;0.60;0.20;;;20.70;58.60;;;;;;4496460;31;20120;-79
2021/12/17 11:01:59;;;;;;;2.83;0.50;;;20.70;58.60;;;;;;4497441;31;20124;-76
2021/12/17 11:04:27;;;;;;;0.65;0.30;;;20.70;58.60;;;;;;4497171;31;20501;-76
2021/12/17 11:07:08;;;;;;;1.20;0.30;;;20.70;58.60;;;;;;4496734;31;20270;-77
2021/12/17 11:09:50;;;;;;;0.68;0.28;;;20.70;58.80;;;;;;4497487;31;20142;-76
2021/12/17 11:12:36;;;;;;;0.95;0.30;;;20.70;58.80;;;;;;4506092;31;20189;-76
2021/12/17 11:15:10;;;;;;;0.88;0.30;;;20.70;58.90;;;;;;4495974;31;20590;-80
2021/12/17 11:17:37;;;;;;;1.17;0.20;;;20.70;59.00;;;;;;4496536;31;20149;-78
2021/12/17 11:20:17;;;;;;;2.22;0.28;;;20.70;59.10;;;;;;4494449;31;20141;-76
2021/12/17 11:22:44;;;;;;;0.75;0.30;;;20.70;59.20;;;;;;4495948;31;20124;-78
2021/12/17 11:25:11;;;;;;;3.72;0.40;;;20.70;59.30;;;;;;4495842;31;20144;-79
2021/12/17 11:27:38;;;;;;;0.95;0.20;;;20.70;59.40;;;;;;4496233;31;20155;-82
2021/12/17 11:30:08;;;;;;;0.65;0.30;;;20.70;59.40;;;;;;4498378;31;20188;-81
2021/12/17 11:32:35;;;;;;;1.20;0.30;;;20.70;59.50;;;;;;4495645;31;20154;-80
2021/12/17 11:35:03;;;;;;;3.60;0.40;;;20.70;59.60;;;;;;4499036;31;20748;-77
2021/12/17 11:37:31;;;;;;;2.40;0.30;;;20.80;59.70;;;;;;4495255;31;20376;-81
2021/12/17 11:40:03;;;;;;;0.45;0.20;;;20.70;59.70;;;;;;4495201;31;20764;-79
2021/12/17 11:42:53;;;;;;;1.88;0.28;;;20.70;59.80;;;;;;4497940;31;20147;-77
2021/12/17 11:45:24;;;;;;;1.40;0.45;;;20.80;59.80;;;;;;4494793;31;20282;-74
2021/12/17 11:47:53;;;;;;;0.60;0.20;;;20.80;59.90;;;;;;4496538;31;20174;-79
2021/12/17 11:50:20;;;;;;;0.90;0.30;;;20.80;59.90;;;;;;4502270;31;20251;-80
2021/12/17 11:52:53;;;;;;;1.20;0.40;;;20.70;59.90;;;;;;4496847;31;20197;-79
2021/12/17 11:55:33;;;;;;;1.02;0.40;;;20.80;60.00;;;;;;4497632;31;20151;-79
2021/12/17 11:58:10;;;;;;;2.20;0.73;;;20.70;59.50;;;;;;4495639;31;20132;-79
2021/12/17 12:00:39;;;;;;;0.60;0.50;;;20.70;59.30;;;;;;4495094;31;20175;-79
2021/12/17 12:03:19;;;;;;;1.42;0.60;;;20.60;59.10;;;;;;4503554;31;20147;-82
2021/12/17 12:05:50;;;;;;;1.98;1.00;;;20.60;59.00;;;;;;4497279;31;20164;-82
2021/12/17 12:08:49;;;;;;;1.52;0.70;;;20.50;58.90;;;;;;4495175;31;20441;-80
2021/12/17 12:11:26;;;;;;;4.68;1.00;;;20.40;58.90;;;;;;4497056;31;20230;-78
2021/12/17 12:13:56;;;;;;;2.08;0.55;;;20.30;59.00;;;;;;4495845;31;20147;-76
2021/12/17 12:16:25;;;;;;;1.77;0.40;;;20.30;59.10;;;;;;4495155;31;20222;-79
2021/12/17 12:18:54;;;;;;;1.88;0.60;;;20.20;59.00;;;;;;4497339;31;20129;-79
2021/12/17 12:21:22;;;;;;;1.73;0.80;;;20.20;59.10;;;;;;4495440;31;20152;-74
2021/12/17 12:23:52;;;;;;;2.60;0.50;;;20.10;59.30;;;;;;4506016;31;20125;-73
2021/12/17 12:26:20;;;;;;;1.90;0.43;;;20.10;59.70;;;;;;4498131;31;20147;-74
2021/12/17 12:28:55;;;;;;;1.67;0.60;;;20.10;59.80;;;;;;4494787;31;20176;-74
2021/12/17 12:31:35;;;;;;;1.45;0.50;;;20.10;60.40;;;;;;4498587;31;20193;-74
2021/12/17 12:34:05;;;;;;;2.03;0.43;;;20.00;60.90;;;;;;4499994;31;20151;-75
2021/12/17 12:37:08;;;;;;;0.55;0.28;;;20.00;61.10;;;;;;4498005;31;20140;-76
2021/12/17 12:39:39;;;;;;;2.65;0.50;;;20.10;61.00;;;;;;4499500;31;20132;-75
2021/12/17 12:42:06;;;;;;;1.80;0.50;;;20.10;61.00;;;;;;4494215;31;20145;-83
2021/12/17 12:44:44;;;;;;;1.73;0.43;;;20.20;61.00;;;;;;4495486;31;20587;-80
2021/12/17 12:47:20;;;;;;;3.30;0.80;;;20.20;60.90;;;;;;4495368;31;20278;-79
2021/12/17 12:50:06;;;;;;;3.20;0.43;;;20.30;60.90;;;;;;4492280;31;20129;-79
2021/12/17 12:52:41;;;;;;;2.70;0.60;;;20.30;60.90;;;;;;4496120;31;20217;-79
2021/12/17 12:55:12;;;;;;;1.98;0.50;;;20.40;60.90;;;;;;4494741;31;20271;-79
2021/12/17 12:57:44;;;;;;;2.83;0.60;;;20.40;60.90;;;;;;4495816;31;20125;-78
2021/12/17 13:00:17;;;;;;;4.32;0.80;;;20.40;61.10;;;;;;4497123;31;20152;-78
2021/12/17 13:02:47;;;;;;;2.30;0.40;;;20.50;61.40;;;;;;4496639;31;21052;-79
2021/12/17 13:05:13;;;;;;;2.75;0.60;;;20.50;61.30;;;;;;4496813;31;20243;-79
2021/12/17 13:07:50;;;;;;;1.30;0.50;;;20.50;61.30;;;;;;4495669;31;20135;-79
2021/12/17 13:10:25;;;;;;;1.33;0.43;;;20.50;61.30;;;;;;4495690;31;20132;-80
2021/12/17 13:26:35;;;;;;;2.38;0.38;;;20.70;61.30;;;;;;4497117;31;20167;-80
2021/12/17 13:29:24;;;;;;;1.02;0.38;;;20.70;61.40;;;;;;4495238;31;20237;-80
2021/12/17 13:31:56;;;;;;;0.70;0.28;;;20.70;61.60;;;;;;4495727;31;20140;-82
2021/12/17 13:34:29;;;;;;;4.05;0.35;;;20.80;61.70;;;;;;4494709;31;20132;-81
2021/12/17 13:37:03;;;;;;;2.38;0.85;;;20.80;61.70;;;;;;4493954;31;20171;-82
2021/12/17 13:39:33;;;;;;;1.30;0.40;;;20.80;61.90;;;;;;4496231;31;20138;-82
2021/12/17 13:42:01;;;;;;;2.60;0.50;;;20.80;61.90;;;;;;4494408;31;20125;-82
2021/12/17 13:44:48;;;;;;;1.73;0.40;;;20.80;62.00;;;;;;4494525;31;20612;-80
2021/12/17 13:47:14;;;;;;;2.75;0.50;;;20.80;62.10;;;;;;4496019;31;20594;-71
2021/12/17 13:49:42;;;;;;;3.97;0.43;;;20.80;62.20;;;;;;4494734;31;20129;-78
2021/12/17 13:52:09;;;;;;;4.22;0.40;;;20.80;62.30;;;;;;4497083;31;20139;-77
2021/12/17 13:54:37;;;;;;;1.98;0.50;;;20.80;62.30;;;;;;4495986;31;20132;-81
2021/12/17 13:57:04;;;;;;;3.97;0.47;;;20.90;62.50;;;;;;4497190;31;20156;-79
2021/12/17 13:59:35;;;;;;;1.50;0.30;;;20.90;62.50;;;;;;4496917;31;20189;-75
2021/12/17 14:02:32;;;;;;;4.00;0.45;;;20.90;62.50;;;;;;4495047;31;20125;-75
2021/12/17 14:05:01;;;;;;;1.15;0.30;;;20.90;62.50;;;;;;4494034;31;20239;-75
2021/12/17 14:07:32;;;;;;;2.55;0.50;;;20.90;62.60;;;;;;4493846;31;20278;-78
2021/12/17 14:10:01;;;;;;;1.95;0.55;;;20.90;62.70;;;;;;4494219;31;20144;-72
2021/12/17 14:12:31;;;;;;;2.35;0.60;;;20.90;62.90;;;;;;4495844;31;20127;-74
2021/12/17 14:15:05;;;;;;;2.95;0.50;;;20.90;62.90;;;;;;4495772;31;20148;-75
2021/12/17 14:17:35;;;;;;;1.83;0.43;;;20.90;63.00;;;;;;4494624;31;20136;-84
2021/12/17 14:20:06;;;;;;;5.80;0.73;;;20.90;63.10;;;;;;4493647;32;20140;-73
2021/12/17 14:22:35;;;;;;;1.20;0.57;;;20.90;63.10;;;;;;4495097;32;20128;-78
2021/12/17 14:25:28;;;;;;;2.58;0.50;;;20.80;63.10;;;;;;4495028;31;20132;-77
2021/12/17 14:27:56;;;;;;;;;;;20.80;63.20;;;;;;4511435;31;20666;-75
2021/12/17 14:30:33;;;;;;;3.50;0.57;;;20.80;63.10;;;;;;4512984;31;20091;-76
2021/12/17 14:33:18;;;;;;;6.03;0.70;;;20.80;63.20;;;;;;4511904;31;20132;-76
2021/12/17 14:35:51;;;;;;;3.67;0.65;;;20.80;63.10;;;;;;4498035;31;20152;-81
2021/12/17 14:38:20;;;;;;;1.23;0.52;;;20.80;63.20;;;;;;4495401;31;20133;-80
2021/12/17 14:40:59;;;;;;;2.03;0.40;;;20.80;63.20;;;;;;4496494;31;20125;-78
2021/12/17 14:43:53;;;;;;;1.83;0.70;;;20.80;63.20;;;;;;4501567;31;20176;-75
2021/12/17 14:49:06;;;;;;;2.40;0.63;;;20.80;63.30;;;;;;4497038;31;20132;-78
2021/12/17 15:04:46;;;;;;;3.63;0.65;;;20.80;63.20;;;;;;4507681;31;20133;-77
2021/12/17 15:07:13;;;;;;;1.35;0.45;;;20.80;63.20;;;;;;4494183;31;20133;-77
2021/12/17 15:09:43;;;;;;;1.13;0.57;;;20.80;63.20;;;;;;4497206;31;20125;-78
2021/12/17 15:12:36;;;;;;;3.67;0.47;;;20.80;63.20;;;;;;4495368;31;20544;-77
2021/12/17 15:15:16;;;;;;;3.40;0.63;;;20.80;63.20;;;;;;4504007;31;20132;-77
2021/12/17 15:17:43;;;;;;;2.70;0.50;;;20.80;63.20;;;;;;4497308;31;20682;-79
2021/12/17 15:20:11;;;;;;;2.33;0.55;;;20.70;63.30;;;;;;4490408;31;23881;-71
2021/12/17 15:22:38;;;;;;;2.67;0.50;;;20.70;63.50;;;;;;4498720;31;21153;-79
2021/12/17 15:25:05;;;;;;;7.38;0.75;;;20.70;63.30;;;;;;4494459;31;20218;-80
2021/12/17 15:27:33;;;;;;;2.55;0.63;;;20.80;63.30;;;;;;4496690;31;20576;-82
2021/12/17 15:30:20;;;;;;;3.72;0.60;;;20.80;63.30;;;;;;4496496;31;20125;-81
2021/12/17 15:32:47;;;;;;;1.60;0.52;;;20.80;63.20;;;;;;4498042;31;20147;-79
2021/12/17 15:35:16;;;;;;;5.43;0.60;;;20.90;63.00;;;;;;4496813;31;20136;-79
2021/12/17 15:37:43;;;;;;;1.88;0.52;;;21.00;62.80;;;;;;4498003;31;20528;-80
2021/12/17 15:40:10;;;;;;;3.05;0.60;;;21.10;62.50;;;;;;4496561;31;20864;-78
2021/12/17 15:42:37;;;;;;;2.15;0.57;;;21.20;62.20;;;;;;4498361;31;20117;-80
2021/12/17 15:45:04;;;;;;;1.08;0.50;;;21.30;62.00;;;;;;4494967;31;20139;-71
2021/12/17 15:47:33;;;;;;;2.08;0.28;;;21.40;61.80;;;;;;4495914;31;20136;-81
2021/12/17 15:49:59;;;;;;;3.20;0.50;;;21.40;62.00;;;;;;4495843;31;20214;-80
2021/12/17 15:52:25;;;;;;;5.00;0.57;;;21.30;62.20;;;;;;4497024;31;20128;-81
2021/12/17 15:54:51;;;;;;;3.70;0.40;;;21.30;62.50;;;;;;4495721;31;20128;-79
2021/12/17 15:57:17;;;;;;;2.88;0.50;;;21.20;62.60;;;;;;4494721;31;20133;-81
2021/12/17 15:59:45;;;;;;;1.98;0.57;;;21.20;62.60;;;;;;4496542;31;20255;-79
2021/12/17 16:02:12;;;;;;;1.58;0.50;;;21.20;62.80;;;;;;4496207;31;20147;-77
2021/12/17 16:04:42;;;;;;;1.63;0.30;;;21.10;62.80;;;;;;4495921;31;20128;-77
2021/12/17 16:07:09;;;;;;;0.75;0.30;;;21.10;62.90;;;;;;4494966;31;20175;-77
2021/12/17 16:23:23;;;;;;;0.88;0.40;;;20.90;63.40;;;;;;4509504;31;20166;-84
2021/12/17 16:25:52;;;;;;;1.48;0.47;;;21.00;63.50;;;;;;4494446;31;20234;-80
2021/12/17 16:28:18;;;;;;;2.67;0.50;;;20.90;63.50;;;;;;4494490;31;20120;-80
2021/12/17 16:30:44;;;;;;;0.88;0.45;;;20.90;63.60;;;;;;4495885;31;20337;-76
2021/12/17 16:33:10;;;;;;;4.00;0.43;;;20.90;63.60;;;;;;4495136;31;20147;-77
2021/12/17 16:35:36;;;;;;;2.28;0.50;;;20.90;63.60;;;;;;4495143;31;20360;-76
2021/12/17 16:38:03;;;;;;;1.55;0.55;;;20.90;63.60;;;;;;4495523;31;20180;-76
2021/12/17 16:40:29;;;;;;;1.42;0.40;;;20.90;63.60;;;;;;4495622;31;20353;-76
2021/12/17 16:42:57;;;;;;;1.33;0.30;;;21.00;64.60;;;;;;4494696;31;20287;-75
2021/12/17 16:45:23;;;;;;;1.30;0.47;;;20.90;63.60;;;;;;4493916;31;20662;-78
2021/12/17 16:47:50;;;;;;;1.52;0.40;;;20.90;63.60;;;;;;4496100;31;20135;-70